sensor_id;sensor_type;location;lat;lon;timestamp;temperature;humidity
29341;DHT22;16337;59.536;13.468;2023-03-16T00:00:46;-4.40;99.90
29341;DHT22;16337;59.536;13.468;2023-03-16T00:03:12;-4.50;99.90
29341;DHT22;16337;59.536;13.468;2023-03-16T00:05:49;-4.70;99.90
29341;DHT22;16337;59.536;13.468;2023-03-16T00:08:15;-4.80;99.90
29341;DHT22;16337;59.536;13.468;2023-03-16T00:10:41;-4.90;99.90
29341;DHT22;16337;59.536;13.468;2023-03-16T00:13:15;-5.00;99.90
29341;DHT22;16337;59.536;13.468;2023-03-16T00:15:52;-5.20;99.90
29341;DHT22;16337;59.536;13.468;2023-03-16T00:18:18;-5.30;99.90
29341;DHT22;16337;59.536;13.468;2023-03-16T00:20:43;-5.30;99.90
29341;DHT22;16337;59.536;13.468;2023-03-16T00:23:09;-5.40;99.90
29341;DHT22;16337;59.536;13.468;2023-03-16T00:25:38;-5.40;99.90
29341;DHT22;16337;59.536;13.468;2023-03-16T00:28:03;-5.40;99.90
29341;DHT22;16337;59.536;13.468;2023-03-16T00:30:30;-5.40;99.90
29341;DHT22;16337;59.536;13.468;2023-03-16T00:32:57;-5.40;99.90
29341;DHT22;16337;59.536;13.468;2023-03-16T00:35:23;-5.40;99.90
29341;DHT22;16337;59.536;13.468;2023-03-16T00:37:49;-5.30;99.90
29341;DHT22;16337;59.536;13.468;2023-03-16T00:40:15;-5.30;99.90
29341;DHT22;16337;59.536;13.468;2023-03-16T00:42:41;-5.30;99.90
29341;DHT22;16337;59.536;13.468;2023-03-16T00:45:08;-5.30;99.90
29341;DHT22;16337;59.536;13.468;2023-03-16T00:47:34;-5.30;99.90
29341;DHT22;16337;59.536;13.468;2023-03-16T00:50:01;-5.40;99.90
29341;DHT22;16337;59.536;13.468;2023-03-16T00:52:29;-5.50;99.90
29341;DHT22;16337;59.536;13.468;2023-03-16T00:54:55;-5.50;99.90
29341;DHT22;16337;59.536;13.468;2023-03-16T00:57:23;-5.60;99.90
29341;DHT22;16337;59.536;13.468;2023-03-16T00:59:49;-5.70;99.90
29341;DHT22;16337;59.536;13.468;2023-03-16T01:02:16;-5.70;99.90
29341;DHT22;16337;59.536;13.468;2023-03-16T01:04:43;-5.80;99.90
29341;DHT22;16337;59.536;13.468;2023-03-16T01:07:12;-5.90;99.90
29341;DHT22;16337;59.536;13.468;2023-03-16T01:09:39;-6.00;99.90
29341;DHT22;16337;59.536;13.468;2023-03-16T01:12:09;-6.00;99.90
29341;DHT22;16337;59.536;13.468;2023-03-16T01:14:35;-6.00;99.90
29341;DHT22;16337;59.536;13.468;2023-03-16T01:17:02;-6.00;99.90
29341;DHT22;16337;59.536;13.468;2023-03-16T01:19:33;-6.00;99.90
29341;DHT22;16337;59.536;13.468;2023-03-16T01:22:01;-6.00;99.90
29341;DHT22;16337;59.536;13.468;2023-03-16T01:24:27;-6.10;99.90
29341;DHT22;16337;59.536;13.468;2023-03-16T01:26:53;-6.20;99.90
29341;DHT22;16337;59.536;13.468;2023-03-16T01:29:19;-6.20;99.90
29341;DHT22;16337;59.536;13.468;2023-03-16T01:31:44;-6.20;99.90
29341;DHT22;16337;59.536;13.468;2023-03-16T01:34:10;-6.10;99.90
29341;DHT22;16337;59.536;13.468;2023-03-16T01:36:43;-6.10;99.90
29341;DHT22;16337;59.536;13.468;2023-03-16T01:39:11;-6.10;99.90
29341;DHT22;16337;59.536;13.468;2023-03-16T01:41:37;-6.10;99.90
29341;DHT22;16337;59.536;13.468;2023-03-16T01:44:04;-5.90;99.90
29341;DHT22;16337;59.536;13.468;2023-03-16T01:46:30;-5.80;99.90
29341;DHT22;16337;59.536;13.468;2023-03-16T01:49:05;-5.70;99.90
29341;DHT22;16337;59.536;13.468;2023-03-16T01:51:51;-5.70;99.90
29341;DHT22;16337;59.536;13.468;2023-03-16T01:54:35;-5.70;99.90
29341;DHT22;16337;59.536;13.468;2023-03-16T01:57:09;-5.70;99.90
29341;DHT22;16337;59.536;13.468;2023-03-16T01:59:46;-5.70;99.90
29341;DHT22;16337;59.536;13.468;2023-03-16T02:02:15;-5.70;99.90
29341;DHT22;16337;59.536;13.468;2023-03-16T02:07:08;-5.60;99.90
29341;DHT22;16337;59.536;13.468;2023-03-16T02:09:41;-5.60;99.90
29341;DHT22;16337;59.536;13.468;2023-03-16T02:12:13;-5.70;99.90
29341;DHT22;16337;59.536;13.468;2023-03-16T02:14:48;-5.60;99.90
29341;DHT22;16337;59.536;13.468;2023-03-16T02:17:16;-5.70;99.90
29341;DHT22;16337;59.536;13.468;2023-03-16T02:20:04;-5.70;99.90
29341;DHT22;16337;59.536;13.468;2023-03-16T02:22:36;-5.70;99.90
29341;DHT22;16337;59.536;13.468;2023-03-16T02:25:04;-5.70;99.90
29341;DHT22;16337;59.536;13.468;2023-03-16T02:27:43;-5.60;99.90
29341;DHT22;16337;59.536;13.468;2023-03-16T02:30:13;-5.60;99.90
29341;DHT22;16337;59.536;13.468;2023-03-16T02:32:45;-5.60;99.90
29341;DHT22;16337;59.536;13.468;2023-03-16T02:35:11;-5.60;99.90
29341;DHT22;16337;59.536;13.468;2023-03-16T02:37:38;-5.60;99.90
29341;DHT22;16337;59.536;13.468;2023-03-16T02:40:28;-5.60;99.90
29341;DHT22;16337;59.536;13.468;2023-03-16T02:43:18;-5.60;99.90
29341;DHT22;16337;59.536;13.468;2023-03-16T02:45:49;-5.50;99.90
29341;DHT22;16337;59.536;13.468;2023-03-16T02:48:33;-5.50;99.90
29341;DHT22;16337;59.536;13.468;2023-03-16T02:51:00;-5.60;99.90
29341;DHT22;16337;59.536;13.468;2023-03-16T02:53:26;-5.60;99.90
29341;DHT22;16337;59.536;13.468;2023-03-16T02:55:51;-5.60;99.90
29341;DHT22;16337;59.536;13.468;2023-03-16T02:58:17;-5.60;99.90
29341;DHT22;16337;59.536;13.468;2023-03-16T03:00:43;-5.70;99.90
29341;DHT22;16337;59.536;13.468;2023-03-16T03:03:10;-5.80;99.90
29341;DHT22;16337;59.536;13.468;2023-03-16T03:05:37;-6.00;99.90
29341;DHT22;16337;59.536;13.468;2023-03-16T03:08:06;-6.20;99.90
29341;DHT22;16337;59.536;13.468;2023-03-16T03:10:35;-6.30;99.90
29341;DHT22;16337;59.536;13.468;2023-03-16T03:13:00;-6.40;99.90
29341;DHT22;16337;59.536;13.468;2023-03-16T03:15:29;-6.40;99.90
29341;DHT22;16337;59.536;13.468;2023-03-16T03:17:58;-6.30;99.90
29341;DHT22;16337;59.536;13.468;2023-03-16T03:20:29;-6.20;99.90
29341;DHT22;16337;59.536;13.468;2023-03-16T03:22:58;-6.10;99.90
29341;DHT22;16337;59.536;13.468;2023-03-16T03:25:30;-6.10;99.90
29341;DHT22;16337;59.536;13.468;2023-03-16T03:30:51;-6.10;99.90
29341;DHT22;16337;59.536;13.468;2023-03-16T03:33:17;-6.20;99.90
29341;DHT22;16337;59.536;13.468;2023-03-16T03:35:43;-6.30;99.90
29341;DHT22;16337;59.536;13.468;2023-03-16T03:38:09;-6.50;99.90
29341;DHT22;16337;59.536;13.468;2023-03-16T03:40:36;-6.60;99.90
29341;DHT22;16337;59.536;13.468;2023-03-16T03:43:05;-6.70;99.90
29341;DHT22;16337;59.536;13.468;2023-03-16T03:45:31;-6.80;99.90
29341;DHT22;16337;59.536;13.468;2023-03-16T03:47:57;-6.90;99.90
29341;DHT22;16337;59.536;13.468;2023-03-16T03:50:26;-7.00;99.90
29341;DHT22;16337;59.536;13.468;2023-03-16T03:52:51;-7.10;99.90
29341;DHT22;16337;59.536;13.468;2023-03-16T03:55:18;-7.20;99.90
29341;DHT22;16337;59.536;13.468;2023-03-16T03:57:47;-7.20;99.90
29341;DHT22;16337;59.536;13.468;2023-03-16T04:00:16;-7.20;99.90
29341;DHT22;16337;59.536;13.468;2023-03-16T04:02:45;-7.20;99.90
29341;DHT22;16337;59.536;13.468;2023-03-16T04:05:17;-7.20;99.90
29341;DHT22;16337;59.536;13.468;2023-03-16T04:07:46;-7.20;99.90
29341;DHT22;16337;59.536;13.468;2023-03-16T04:10:14;-7.30;99.90
29341;DHT22;16337;59.536;13.468;2023-03-16T04:12:40;-7.30;99.90
29341;DHT22;16337;59.536;13.468;2023-03-16T04:15:06;-7.40;99.90
29341;DHT22;16337;59.536;13.468;2023-03-16T04:17:32;-7.40;99.90
29341;DHT22;16337;59.536;13.468;2023-03-16T04:20:01;-7.40;99.90
29341;DHT22;16337;59.536;13.468;2023-03-16T04:22:42;-7.50;99.90
29341;DHT22;16337;59.536;13.468;2023-03-16T04:25:16;-7.50;99.90
29341;DHT22;16337;59.536;13.468;2023-03-16T04:27:42;-7.50;99.90
29341;DHT22;16337;59.536;13.468;2023-03-16T04:30:13;-7.50;99.90
29341;DHT22;16337;59.536;13.468;2023-03-16T04:32:39;-7.60;99.90
29341;DHT22;16337;59.536;13.468;2023-03-16T04:35:08;-7.60;99.90
29341;DHT22;16337;59.536;13.468;2023-03-16T04:37:37;-7.60;99.90
29341;DHT22;16337;59.536;13.468;2023-03-16T04:40:09;-7.60;99.90
29341;DHT22;16337;59.536;13.468;2023-03-16T04:42:45;-7.60;99.90
29341;DHT22;16337;59.536;13.468;2023-03-16T04:45:11;-7.70;99.90
29341;DHT22;16337;59.536;13.468;2023-03-16T04:47:38;-7.70;99.90
29341;DHT22;16337;59.536;13.468;2023-03-16T04:50:07;-7.70;99.90
29341;DHT22;16337;59.536;13.468;2023-03-16T04:52:34;-7.70;99.90
29341;DHT22;16337;59.536;13.468;2023-03-16T04:54:59;-7.70;99.90
29341;DHT22;16337;59.536;13.468;2023-03-16T04:57:30;-7.60;99.90
29341;DHT22;16337;59.536;13.468;2023-03-16T04:59:56;-7.60;99.90
29341;DHT22;16337;59.536;13.468;2023-03-16T05:02:22;-7.60;99.90
29341;DHT22;16337;59.536;13.468;2023-03-16T05:04:51;-7.60;99.90
29341;DHT22;16337;59.536;13.468;2023-03-16T05:07:17;-7.60;99.90
29341;DHT22;16337;59.536;13.468;2023-03-16T05:09:43;-7.60;99.90
29341;DHT22;16337;59.536;13.468;2023-03-16T05:12:09;-7.70;99.90
29341;DHT22;16337;59.536;13.468;2023-03-16T05:14:35;-7.70;99.90
29341;DHT22;16337;59.536;13.468;2023-03-16T05:17:01;-7.70;99.90
29341;DHT22;16337;59.536;13.468;2023-03-16T05:19:28;-7.70;99.90
29341;DHT22;16337;59.536;13.468;2023-03-16T05:21:55;-7.60;99.90
29341;DHT22;16337;59.536;13.468;2023-03-16T05:24:21;-7.60;99.90
29341;DHT22;16337;59.536;13.468;2023-03-16T05:26:48;-7.60;99.90
29341;DHT22;16337;59.536;13.468;2023-03-16T05:29:17;-7.60;99.90
29341;DHT22;16337;59.536;13.468;2023-03-16T05:31:45;-7.70;99.90
29341;DHT22;16337;59.536;13.468;2023-03-16T05:34:12;-7.60;99.90
29341;DHT22;16337;59.536;13.468;2023-03-16T05:36:37;-7.60;99.90
29341;DHT22;16337;59.536;13.468;2023-03-16T05:39:06;-7.60;99.90
29341;DHT22;16337;59.536;13.468;2023-03-16T05:41:33;-7.50;99.90
29341;DHT22;16337;59.536;13.468;2023-03-16T05:44:09;-7.50;99.90
29341;DHT22;16337;59.536;13.468;2023-03-16T05:46:41;-7.50;99.90
29341;DHT22;16337;59.536;13.468;2023-03-16T05:49:10;-7.40;99.90
29341;DHT22;16337;59.536;13.468;2023-03-16T05:51:37;-7.20;99.90
29341;DHT22;16337;59.536;13.468;2023-03-16T05:54:03;-7.10;99.90
29341;DHT22;16337;59.536;13.468;2023-03-16T05:56:29;-6.90;99.90
29341;DHT22;16337;59.536;13.468;2023-03-16T05:58:58;-6.80;99.90
29341;DHT22;16337;59.536;13.468;2023-03-16T06:01:27;-6.60;99.90
29341;DHT22;16337;59.536;13.468;2023-03-16T06:04:14;-6.60;99.90
29341;DHT22;16337;59.536;13.468;2023-03-16T06:06:49;-6.60;99.90
29341;DHT22;16337;59.536;13.468;2023-03-16T06:09:18;-6.50;99.90
29341;DHT22;16337;59.536;13.468;2023-03-16T06:12:18;-6.50;99.90
29341;DHT22;16337;59.536;13.468;2023-03-16T06:15:11;-6.50;99.90
29341;DHT22;16337;59.536;13.468;2023-03-16T06:17:40;-6.30;99.90
29341;DHT22;16337;59.536;13.468;2023-03-16T06:20:08;-6.20;99.90
29341;DHT22;16337;59.536;13.468;2023-03-16T06:23:01;-6.00;99.90
29341;DHT22;16337;59.536;13.468;2023-03-16T06:25:32;-6.00;99.90
29341;DHT22;16337;59.536;13.468;2023-03-16T06:28:03;-5.90;99.90
29341;DHT22;16337;59.536;13.468;2023-03-16T06:30:29;-5.90;99.90
29341;DHT22;16337;59.536;13.468;2023-03-16T06:32:54;-5.90;99.90
29341;DHT22;16337;59.536;13.468;2023-03-16T06:35:20;-5.90;99.90
29341;DHT22;16337;59.536;13.468;2023-03-16T06:38:10;-5.80;99.90
29341;DHT22;16337;59.536;13.468;2023-03-16T06:40:36;-5.70;99.90
29341;DHT22;16337;59.536;13.468;2023-03-16T06:43:25;-5.70;99.90
29341;DHT22;16337;59.536;13.468;2023-03-16T06:45:51;-5.50;99.90
29341;DHT22;16337;59.536;13.468;2023-03-16T06:48:20;-5.40;99.90
29341;DHT22;16337;59.536;13.468;2023-03-16T06:50:46;-5.30;99.90
29341;DHT22;16337;59.536;13.468;2023-03-16T06:53:12;-5.20;99.90
29341;DHT22;16337;59.536;13.468;2023-03-16T06:55:44;-5.10;99.90
29341;DHT22;16337;59.536;13.468;2023-03-16T06:58:13;-4.90;99.90
29341;DHT22;16337;59.536;13.468;2023-03-16T07:00:44;-4.80;99.90
29341;DHT22;16337;59.536;13.468;2023-03-16T07:03:10;-4.70;99.90
29341;DHT22;16337;59.536;13.468;2023-03-16T07:05:36;-4.50;99.90
29341;DHT22;16337;59.536;13.468;2023-03-16T07:08:07;-4.40;99.90
29341;DHT22;16337;59.536;13.468;2023-03-16T07:10:34;-4.20;99.90
29341;DHT22;16337;59.536;13.468;2023-03-16T07:13:12;-4.10;99.90
29341;DHT22;16337;59.536;13.468;2023-03-16T07:15:38;-3.90;99.90
29341;DHT22;16337;59.536;13.468;2023-03-16T07:18:07;-3.70;99.90
29341;DHT22;16337;59.536;13.468;2023-03-16T07:20:33;-3.50;99.90
29341;DHT22;16337;59.536;13.468;2023-03-16T07:22:59;-3.30;99.90
29341;DHT22;16337;59.536;13.468;2023-03-16T07:25:25;-3.10;99.90
29341;DHT22;16337;59.536;13.468;2023-03-16T07:27:54;-2.90;99.90
29341;DHT22;16337;59.536;13.468;2023-03-16T07:30:23;-2.70;99.90
29341;DHT22;16337;59.536;13.468;2023-03-16T07:32:55;-2.50;99.90
29341;DHT22;16337;59.536;13.468;2023-03-16T07:35:21;-2.30;99.90
29341;DHT22;16337;59.536;13.468;2023-03-16T07:37:47;-2.10;99.90
29341;DHT22;16337;59.536;13.468;2023-03-16T07:40:19;-1.90;99.90
29341;DHT22;16337;59.536;13.468;2023-03-16T07:42:48;-1.70;99.90
29341;DHT22;16337;59.536;13.468;2023-03-16T07:45:25;-1.50;99.90
29341;DHT22;16337;59.536;13.468;2023-03-16T07:47:51;-1.30;99.90
29341;DHT22;16337;59.536;13.468;2023-03-16T07:50:20;-1.10;99.90
29341;DHT22;16337;59.536;13.468;2023-03-16T07:52:46;-0.90;99.90
29341;DHT22;16337;59.536;13.468;2023-03-16T07:55:18;-0.80;99.90
29341;DHT22;16337;59.536;13.468;2023-03-16T07:57:47;-0.60;99.90
29341;DHT22;16337;59.536;13.468;2023-03-16T08:00:13;-0.30;99.90
29341;DHT22;16337;59.536;13.468;2023-03-16T08:02:47;-0.10;99.90
29341;DHT22;16337;59.536;13.468;2023-03-16T08:05:13;0.20;99.90
29341;DHT22;16337;59.536;13.468;2023-03-16T08:07:39;0.50;99.90
29341;DHT22;16337;59.536;13.468;2023-03-16T08:10:09;0.70;99.90
29341;DHT22;16337;59.536;13.468;2023-03-16T08:12:39;1.00;99.90
29341;DHT22;16337;59.536;13.468;2023-03-16T08:15:05;1.20;99.90
29341;DHT22;16337;59.536;13.468;2023-03-16T08:17:34;1.40;99.90
29341;DHT22;16337;59.536;13.468;2023-03-16T08:20:03;1.60;99.90
29341;DHT22;16337;59.536;13.468;2023-03-16T08:22:34;1.90;99.90
29341;DHT22;16337;59.536;13.468;2023-03-16T08:25:02;2.00;99.90
29341;DHT22;16337;59.536;13.468;2023-03-16T08:27:28;2.00;99.90
29341;DHT22;16337;59.536;13.468;2023-03-16T08:29:54;2.00;99.90
29341;DHT22;16337;59.536;13.468;2023-03-16T08:32:20;2.30;99.90
29341;DHT22;16337;59.536;13.468;2023-03-16T08:34:46;2.30;99.90
29341;DHT22;16337;59.536;13.468;2023-03-16T08:37:12;2.50;99.90
29341;DHT22;16337;59.536;13.468;2023-03-16T08:39:41;2.80;99.90
29341;DHT22;16337;59.536;13.468;2023-03-16T08:42:13;3.00;99.90
29341;DHT22;16337;59.536;13.468;2023-03-16T08:44:41;3.30;99.90
29341;DHT22;16337;59.536;13.468;2023-03-16T08:47:12;3.60;99.90
29341;DHT22;16337;59.536;13.468;2023-03-16T08:49:39;3.60;99.90
29341;DHT22;16337;59.536;13.468;2023-03-16T08:52:06;3.70;99.90
29341;DHT22;16337;59.536;13.468;2023-03-16T08:54:35;3.90;99.90
29341;DHT22;16337;59.536;13.468;2023-03-16T08:57:00;4.10;99.90
29341;DHT22;16337;59.536;13.468;2023-03-16T08:59:27;4.30;99.90
29341;DHT22;16337;59.536;13.468;2023-03-16T09:01:52;4.40;99.90
29341;DHT22;16337;59.536;13.468;2023-03-16T09:04:19;4.40;99.90
29341;DHT22;16337;59.536;13.468;2023-03-16T09:06:47;4.70;99.90
29341;DHT22;16337;59.536;13.468;2023-03-16T09:09:16;4.80;99.90
29341;DHT22;16337;59.536;13.468;2023-03-16T09:11:45;5.00;99.90
29341;DHT22;16337;59.536;13.468;2023-03-16T09:14:14;5.20;99.90
29341;DHT22;16337;59.536;13.468;2023-03-16T09:16:43;5.40;99.90
29341;DHT22;16337;59.536;13.468;2023-03-16T09:19:13;5.70;99.90
29341;DHT22;16337;59.536;13.468;2023-03-16T09:21:42;6.00;99.90
29341;DHT22;16337;59.536;13.468;2023-03-16T09:24:07;6.40;99.90
29341;DHT22;16337;59.536;13.468;2023-03-16T09:26:35;6.50;99.90
29341;DHT22;16337;59.536;13.468;2023-03-16T09:29:00;6.50;99.90
29341;DHT22;16337;59.536;13.468;2023-03-16T09:31:26;6.40;99.90
29341;DHT22;16337;59.536;13.468;2023-03-16T09:33:52;6.50;99.90
29341;DHT22;16337;59.536;13.468;2023-03-16T09:36:24;6.50;99.90
29341;DHT22;16337;59.536;13.468;2023-03-16T09:38:52;6.80;99.90
29341;DHT22;16337;59.536;13.468;2023-03-16T09:47:12;7.40;99.90
29341;DHT22;16337;59.536;13.468;2023-03-16T09:49:48;7.50;99.90
29341;DHT22;16337;59.536;13.468;2023-03-16T09:55:26;8.10;99.90
29341;DHT22;16337;59.536;13.468;2023-03-16T09:57:54;8.50;99.20
29341;DHT22;16337;59.536;13.468;2023-03-16T10:00:25;8.80;99.70
29341;DHT22;16337;59.536;13.468;2023-03-16T10:05:26;8.90;97.00
29341;DHT22;16337;59.536;13.468;2023-03-16T10:16:53;9.40;93.70
29341;DHT22;16337;59.536;13.468;2023-03-16T10:19:33;9.30;91.10
29341;DHT22;16337;59.536;13.468;2023-03-16T10:22:24;9.60;92.20
29341;DHT22;16337;59.536;13.468;2023-03-16T10:27:58;9.60;91.40
29341;DHT22;16337;59.536;13.468;2023-03-16T10:35:51;9.70;85.80
29341;DHT22;16337;59.536;13.468;2023-03-16T10:41:43;10.10;82.10
29341;DHT22;16337;59.536;13.468;2023-03-16T10:44:26;10.10;86.00
29341;DHT22;16337;59.536;13.468;2023-03-16T10:47:05;10.00;77.30
29341;DHT22;16337;59.536;13.468;2023-03-16T10:52:48;9.40;79.50
29341;DHT22;16337;59.536;13.468;2023-03-16T10:55:31;9.10;79.80
29341;DHT22;16337;59.536;13.468;2023-03-16T10:58:21;9.60;76.60
29341;DHT22;16337;59.536;13.468;2023-03-16T11:00:46;9.70;77.60
29341;DHT22;16337;59.536;13.468;2023-03-16T11:03:23;9.50;83.00
29341;DHT22;16337;59.536;13.468;2023-03-16T11:05:58;9.70;80.50
29341;DHT22;16337;59.536;13.468;2023-03-16T11:08:26;9.90;80.10
29341;DHT22;16337;59.536;13.468;2023-03-16T11:11:23;10.30;79.00
29341;DHT22;16337;59.536;13.468;2023-03-16T11:14:09;10.30;74.30
29341;DHT22;16337;59.536;13.468;2023-03-16T11:19:29;9.30;80.30
29341;DHT22;16337;59.536;13.468;2023-03-16T11:33:08;9.30;80.20
29341;DHT22;16337;59.536;13.468;2023-03-16T11:35:38;9.60;76.60
29341;DHT22;16337;59.536;13.468;2023-03-16T11:41:24;9.40;78.40
29341;DHT22;16337;59.536;13.468;2023-03-16T11:43:56;9.10;75.40
29341;DHT22;16337;59.536;13.468;2023-03-16T11:46:47;9.00;79.60
29341;DHT22;16337;59.536;13.468;2023-03-16T11:49:51;9.20;80.50
29341;DHT22;16337;59.536;13.468;2023-03-16T11:58:19;8.10;77.40
29341;DHT22;16337;59.536;13.468;2023-03-16T12:10:21;7.90;79.10
29341;DHT22;16337;59.536;13.468;2023-03-16T12:19:26;7.40;84.10
29341;DHT22;16337;59.536;13.468;2023-03-16T12:21:35;7.40;86.40
29341;DHT22;16337;59.536;13.468;2023-03-16T12:24:26;7.40;84.70
29341;DHT22;16337;59.536;13.468;2023-03-16T12:26:58;7.50;85.10
29341;DHT22;16337;59.536;13.468;2023-03-16T12:32:40;6.90;83.90
29341;DHT22;16337;59.536;13.468;2023-03-16T12:41:55;6.50;81.00
29341;DHT22;16337;59.536;13.468;2023-03-16T12:44:29;6.40;85.80
29341;DHT22;16337;59.536;13.468;2023-03-16T12:47:32;6.70;86.40
29341;DHT22;16337;59.536;13.468;2023-03-16T12:50:12;6.60;82.40
29341;DHT22;16337;59.536;13.468;2023-03-16T12:52:48;6.60;87.60
29341;DHT22;16337;59.536;13.468;2023-03-16T12:55:22;6.50;84.10
29341;DHT22;16337;59.536;13.468;2023-03-16T12:58:03;6.50;81.90
29341;DHT22;16337;59.536;13.468;2023-03-16T13:00:52;6.30;88.80
29341;DHT22;16337;59.536;13.468;2023-03-16T13:03:21;6.40;85.50
29341;DHT22;16337;59.536;13.468;2023-03-16T13:05:58;6.20;83.70
29341;DHT22;16337;59.536;13.468;2023-03-16T13:08:26;6.20;84.50
29341;DHT22;16337;59.536;13.468;2023-03-16T13:11:05;6.40;84.50
29341;DHT22;16337;59.536;13.468;2023-03-16T13:13:34;6.40;87.00
29341;DHT22;16337;59.536;13.468;2023-03-16T13:19:23;6.90;85.50
29341;DHT22;16337;59.536;13.468;2023-03-16T13:22:00;6.70;85.50
29341;DHT22;16337;59.536;13.468;2023-03-16T13:24:48;6.60;83.80
29341;DHT22;16337;59.536;13.468;2023-03-16T13:27:32;6.70;89.00
29341;DHT22;16337;59.536;13.468;2023-03-16T13:30:11;7.00;87.50
29341;DHT22;16337;59.536;13.468;2023-03-16T13:36:16;6.50;84.30
29341;DHT22;16337;59.536;13.468;2023-03-16T13:39:06;6.30;83.60
29341;DHT22;16337;59.536;13.468;2023-03-16T13:41:36;6.00;85.40
29341;DHT22;16337;59.536;13.468;2023-03-16T13:44:03;5.70;84.20
29341;DHT22;16337;59.536;13.468;2023-03-16T13:46:32;5.30;84.20
29341;DHT22;16337;59.536;13.468;2023-03-16T13:49:01;5.30;85.90
29341;DHT22;16337;59.536;13.468;2023-03-16T13:51:33;5.40;85.50
29341;DHT22;16337;59.536;13.468;2023-03-16T13:56:54;5.60;90.00
29341;DHT22;16337;59.536;13.468;2023-03-16T13:59:21;5.50;86.10
29341;DHT22;16337;59.536;13.468;2023-03-16T14:01:47;5.40;87.50
29341;DHT22;16337;59.536;13.468;2023-03-16T14:04:18;5.30;86.30
29341;DHT22;16337;59.536;13.468;2023-03-16T14:07:15;5.20;86.00
29341;DHT22;16337;59.536;13.468;2023-03-16T14:09:42;5.20;84.80
29341;DHT22;16337;59.536;13.468;2023-03-16T14:12:16;5.10;83.60
29341;DHT22;16337;59.536;13.468;2023-03-16T14:14:46;5.00;83.80
29341;DHT22;16337;59.536;13.468;2023-03-16T14:17:20;4.80;83.50
29341;DHT22;16337;59.536;13.468;2023-03-16T14:19:58;4.70;83.90
29341;DHT22;16337;59.536;13.468;2023-03-16T14:22:36;4.80;84.80
29341;DHT22;16337;59.536;13.468;2023-03-16T14:25:03;4.90;85.00
29341;DHT22;16337;59.536;13.468;2023-03-16T14:30:27;4.80;90.10
29341;DHT22;16337;59.536;13.468;2023-03-16T14:33:04;4.90;86.90
29341;DHT22;16337;59.536;13.468;2023-03-16T14:35:41;4.90;86.90
29341;DHT22;16337;59.536;13.468;2023-03-16T14:38:27;4.90;86.30
29341;DHT22;16337;59.536;13.468;2023-03-16T14:40:55;4.70;88.80
29341;DHT22;16337;59.536;13.468;2023-03-16T14:43:36;4.60;89.80
29341;DHT22;16337;59.536;13.468;2023-03-16T14:46:04;4.40;89.80
29341;DHT22;16337;59.536;13.468;2023-03-16T14:48:32;4.30;88.80
29341;DHT22;16337;59.536;13.468;2023-03-16T14:51:10;4.30;90.00
29341;DHT22;16337;59.536;13.468;2023-03-16T14:53:43;4.10;90.00
29341;DHT22;16337;59.536;13.468;2023-03-16T14:56:15;4.00;90.50
29341;DHT22;16337;59.536;13.468;2023-03-16T14:58:41;4.00;91.10
29341;DHT22;16337;59.536;13.468;2023-03-16T15:01:19;4.00;91.50
29341;DHT22;16337;59.536;13.468;2023-03-16T15:03:48;4.10;93.00
29341;DHT22;16337;59.536;13.468;2023-03-16T15:06:17;4.10;93.20
29341;DHT22;16337;59.536;13.468;2023-03-16T15:08:47;4.20;92.20
29341;DHT22;16337;59.536;13.468;2023-03-16T15:11:34;4.30;92.70
29341;DHT22;16337;59.536;13.468;2023-03-16T15:14:09;4.20;91.70
29341;DHT22;16337;59.536;13.468;2023-03-16T15:17:10;4.10;91.40
29341;DHT22;16337;59.536;13.468;2023-03-16T15:19:39;4.00;89.80
29341;DHT22;16337;59.536;13.468;2023-03-16T15:22:29;4.00;90.70
29341;DHT22;16337;59.536;13.468;2023-03-16T15:24:59;3.90;90.50
29341;DHT22;16337;59.536;13.468;2023-03-16T15:27:34;3.90;91.70
29341;DHT22;16337;59.536;13.468;2023-03-16T15:30:05;3.80;92.60
29341;DHT22;16337;59.536;13.468;2023-03-16T15:32:43;3.70;92.20
29341;DHT22;16337;59.536;13.468;2023-03-16T15:35:09;3.50;92.60
29341;DHT22;16337;59.536;13.468;2023-03-16T15:37:38;3.40;91.50
29341;DHT22;16337;59.536;13.468;2023-03-16T15:40:25;3.40;92.10
29341;DHT22;16337;59.536;13.468;2023-03-16T15:42:52;3.30;92.60
29341;DHT22;16337;59.536;13.468;2023-03-16T15:45:21;3.20;92.80
29341;DHT22;16337;59.536;13.468;2023-03-16T15:47:49;3.10;93.60
29341;DHT22;16337;59.536;13.468;2023-03-16T15:50:20;3.10;94.30
29341;DHT22;16337;59.536;13.468;2023-03-16T15:52:50;3.10;94.80
29341;DHT22;16337;59.536;13.468;2023-03-16T15:55:34;3.00;95.10
29341;DHT22;16337;59.536;13.468;2023-03-16T15:58:01;3.00;95.50
29341;DHT22;16337;59.536;13.468;2023-03-16T16:00:36;3.00;95.90
29341;DHT22;16337;59.536;13.468;2023-03-16T16:03:04;2.90;94.70
29341;DHT22;16337;59.536;13.468;2023-03-16T16:05:31;2.90;95.30
29341;DHT22;16337;59.536;13.468;2023-03-16T16:07:59;2.90;95.70
29341;DHT22;16337;59.536;13.468;2023-03-16T16:10:28;2.80;94.90
29341;DHT22;16337;59.536;13.468;2023-03-16T16:12:55;2.70;95.70
29341;DHT22;16337;59.536;13.468;2023-03-16T16:15:39;2.70;96.20
29341;DHT22;16337;59.536;13.468;2023-03-16T16:20:46;2.30;95.30
29341;DHT22;16337;59.536;13.468;2023-03-16T16:23:12;2.20;96.20
29341;DHT22;16337;59.536;13.468;2023-03-16T16:25:43;2.20;96.30
29341;DHT22;16337;59.536;13.468;2023-03-16T16:28:19;2.10;96.30
29341;DHT22;16337;59.536;13.468;2023-03-16T16:30:48;2.00;97.70
29341;DHT22;16337;59.536;13.468;2023-03-16T16:35:50;1.90;98.30
29341;DHT22;16337;59.536;13.468;2023-03-16T16:38:20;1.80;97.80
29341;DHT22;16337;59.536;13.468;2023-03-16T16:40:55;1.80;98.20
29341;DHT22;16337;59.536;13.468;2023-03-16T16:43:47;1.70;98.70
29341;DHT22;16337;59.536;13.468;2023-03-16T16:46:16;1.70;97.50
29341;DHT22;16337;59.536;13.468;2023-03-16T16:48:45;1.60;97.20
29341;DHT22;16337;59.536;13.468;2023-03-16T16:51:28;1.50;97.90
29341;DHT22;16337;59.536;13.468;2023-03-16T16:53:56;1.40;97.80
29341;DHT22;16337;59.536;13.468;2023-03-16T16:56:29;1.30;97.80
29341;DHT22;16337;59.536;13.468;2023-03-16T16:58:58;1.20;98.20
29341;DHT22;16337;59.536;13.468;2023-03-16T17:01:30;1.20;99.00
29341;DHT22;16337;59.536;13.468;2023-03-16T17:04:00;1.10;99.50
29341;DHT22;16337;59.536;13.468;2023-03-16T17:06:26;1.10;99.70
29341;DHT22;16337;59.536;13.468;2023-03-16T17:08:56;0.90;99.30
29341;DHT22;16337;59.536;13.468;2023-03-16T17:11:25;0.80;99.90
29341;DHT22;16337;59.536;13.468;2023-03-16T17:14:02;0.80;99.90
29341;DHT22;16337;59.536;13.468;2023-03-16T17:16:39;0.70;99.90
29341;DHT22;16337;59.536;13.468;2023-03-16T17:19:05;0.60;99.80
29341;DHT22;16337;59.536;13.468;2023-03-16T17:21:35;0.50;99.90
29341;DHT22;16337;59.536;13.468;2023-03-16T17:24:09;0.50;99.90
29341;DHT22;16337;59.536;13.468;2023-03-16T17:26:45;0.40;99.90
29341;DHT22;16337;59.536;13.468;2023-03-16T17:29:44;0.40;99.90
29341;DHT22;16337;59.536;13.468;2023-03-16T17:32:29;0.30;99.90
29341;DHT22;16337;59.536;13.468;2023-03-16T17:34:54;0.20;99.90